Time;durP1;ratioP1;P1;durP2;ratioP2;P2;SDS_P1;SDS_P2;PMS_P1;PMS_P2;Temp;Humidity;BMP_temperature;BMP_pressure;BME280_temperature;BME280_humidity;BME280_pressure;Samples;Min_cycle;Max_cycle;Signal;HPM_P1;HPM_P2
2024/01/19 00:01:10;;;;;;;0.23;0.23;;;;;;;-5.57;87.50;100141.28;3142160;22;20255;-76
2024/01/19 00:02:25;;;;;;;0.37;0.37;;;;;;;-5.59;87.46;100151.38;3142107;22;20277;-76
2024/01/19 00:03:38;;;;;;;0.30;0.30;;;;;;;-5.60;87.73;100146.19;3141379;22;20251;-76
2024/01/19 00:04:53;;;;;;;0.40;0.40;;;;;;;-5.63;87.45;100153.69;3142402;22;20631;-77
2024/01/19 00:06:06;;;;;;;0.30;0.30;;;;;;;-5.65;87.72;100146.00;3142567;22;20054;-76
2024/01/19 00:07:21;;;;;;;0.30;0.30;;;;;;;-5.65;87.38;100155.28;3141824;22;20338;-76
2024/01/19 00:08:35;;;;;;;0.40;0.40;;;;;;;-5.66;87.35;100154.41;3142206;22;20055;-76
2024/01/19 00:09:49;;;;;;;0.70;0.70;;;;;;;-5.67;87.73;100160.31;3142436;22;20266;-76
2024/01/19 00:11:05;;;;;;;0.30;0.30;;;;;;;-5.67;87.67;100164.53;3141681;22;20785;-76
2024/01/19 00:12:18;;;;;;;0.53;0.53;;;;;;;-5.67;87.46;100162.84;3142281;22;20356;-76
2024/01/19 00:13:33;;;;;;;1.27;1.27;;;;;;;-5.67;87.42;100172.16;3142450;22;20267;-78
2024/01/19 00:14:47;;;;;;;0.40;0.40;;;;;;;-5.70;87.58;100167.78;3141912;22;20028;-76
2024/01/19 00:16:02;;;;;;;0.30;0.30;;;;;;;-5.71;87.62;100166.03;3141805;22;20271;-76
2024/01/19 00:17:16;;;;;;;0.40;0.40;;;;;;;-5.71;87.25;100166.88;3141831;22;20261;-77
2024/01/19 00:18:30;;;;;;;0.30;0.30;;;;;;;-5.68;87.66;100167.84;3141926;22;20263;-77
2024/01/19 00:19:44;;;;;;;0.33;0.33;;;;;;;-5.68;87.73;100176.34;3142550;22;20024;-77
2024/01/19 00:20:58;;;;;;;0.30;0.30;;;;;;;-5.67;87.43;100178.09;3142151;22;20273;-74
2024/01/19 00:22:11;;;;;;;0.30;0.30;;;;;;;-5.64;87.31;100174.84;3142551;22;20027;-77
2024/01/19 00:23:26;;;;;;;0.30;0.30;;;;;;;-5.63;87.87;100174.88;3141378;22;20813;-77
2024/01/19 00:24:40;;;;;;;0.30;0.30;;;;;;;-5.61;87.50;100178.38;3142198;22;20099;-76
2024/01/19 00:25:54;;;;;;;0.30;0.30;;;;;;;-5.60;87.46;100176.69;3142219;22;20330;-77
2024/01/19 00:27:07;;;;;;;0.30;0.30;;;;;;;-5.58;87.70;100177.66;3141513;22;20482;-76
2024/01/19 00:28:22;;;;;;;0.80;0.80;;;;;;;-5.58;87.88;100175.13;3142264;22;20263;-77
2024/01/19 00:29:36;;;;;;;0.30;0.30;;;;;;;-5.56;87.86;100171.84;3142450;22;20024;-77
2024/01/19 00:30:51;;;;;;;0.30;0.30;;;;;;;-5.55;87.75;100183.78;3141691;22;20559;-76
2024/01/19 00:32:06;;;;;;;0.30;0.30;;;;;;;-5.53;87.51;100183.84;3142317;22;20302;-77
2024/01/19 00:33:19;;;;;;;0.30;0.30;;;;;;;-5.50;87.65;100186.53;3142152;22;20800;-76
2024/01/19 00:34:34;;;;;;;0.40;0.40;;;;;;;-5.49;87.67;100188.28;3141710;22;20263;-78
2024/01/19 00:35:47;;;;;;;0.30;0.30;;;;;;;-5.49;87.87;100184.06;3141766;22;20024;-77
2024/01/19 00:37:02;;;;;;;0.40;0.40;;;;;;;-5.49;87.89;100188.28;3141900;23;20341;-77
2024/01/19 00:38:15;;;;;;;1.60;1.07;;;;;;;-5.46;87.86;100193.50;3142396;22;20438;-77
2024/01/19 00:39:30;;;;;;;0.33;0.33;;;;;;;-5.42;87.48;100190.31;3141768;22;20326;-76
2024/01/19 00:40:43;;;;;;;0.40;0.40;;;;;;;-5.41;87.67;100194.59;3142296;22;20035;-76
2024/01/19 00:41:58;;;;;;;1.23;1.23;;;;;;;-5.35;87.88;100201.66;3140670;22;20263;-77
2024/01/19 00:43:11;;;;;;;0.60;0.60;;;;;;;-5.34;88.16;100199.19;3141647;22;20016;-77
2024/01/19 00:44:25;;;;;;;0.30;0.30;;;;;;;-5.33;87.68;100200.06;3142348;22;20269;-77
2024/01/19 00:45:39;;;;;;;0.63;0.63;;;;;;;-5.33;87.86;100205.13;3141627;22;20096;-78
2024/01/19 00:46:55;;;;;;;0.40;0.40;;;;;;;-5.32;87.69;100212.84;3140281;22;20269;-79
2024/01/19 00:48:08;;;;;;;0.93;0.93;;;;;;;-5.31;87.74;100214.59;3142256;23;20024;-76
2024/01/19 00:49:23;;;;;;;0.40;0.40;;;;;;;-5.30;88.00;100216.31;3143030;22;20329;-77
2024/01/19 00:50:36;;;;;;;0.37;0.37;;;;;;;-5.27;88.10;100220.69;3142530;22;20359;-74
2024/01/19 00:51:51;;;;;;;0.80;0.80;;;;;;;-5.28;88.10;100219.81;3142126;22;20346;-76
2024/01/19 00:53:04;;;;;;;0.30;0.30;;;;;;;-5.27;88.14;100216.50;3142188;22;20024;-76
2024/01/19 00:54:19;;;;;;;0.20;0.20;;;;;;;-5.24;88.09;100219.97;3143215;22;20274;-76
2024/01/19 00:55:32;;;;;;;0.30;0.30;;;;;;;-5.23;88.17;100224.25;3142288;22;20035;-76
2024/01/19 00:56:47;;;;;;;0.30;0.30;;;;;;;-5.21;87.76;100230.28;3142171;22;20266;-76
2024/01/19 00:58:00;;;;;;;0.30;0.30;;;;;;;-5.18;88.10;100238.94;3142695;22;20028;-76
2024/01/19 00:59:14;;;;;;;0.40;0.40;;;;;;;-5.14;88.29;100238.28;3141733;22;20330;-76
2024/01/19 01:00:28;;;;;;;0.30;0.30;;;;;;;-5.10;87.98;100244.41;3142139;22;20459;-76
2024/01/19 01:01:43;;;;;;;0.40;0.40;;;;;;;-5.08;87.87;100236.03;3141697;22;20357;-76
2024/01/19 01:02:58;;;;;;;0.40;0.40;;;;;;;-5.07;87.88;100245.41;3141445;22;20027;-77
2024/01/19 01:04:14;;;;;;;0.30;0.30;;;;;;;-5.05;87.95;100242.94;3142070;22;20602;-77
2024/01/19 01:05:27;;;;;;;0.47;0.47;;;;;;;-5.01;88.14;100238.84;3142131;22;20254;-77
2024/01/19 01:06:41;;;;;;;0.20;0.20;;;;;;;-4.99;88.30;100237.25;3141384;22;20342;-76
2024/01/19 01:07:55;;;;;;;0.30;0.30;;;;;;;-4.96;88.11;100243.34;3142221;22;20038;-77
2024/01/19 01:09:10;;;;;;;0.30;0.30;;;;;;;-4.96;88.34;100248.44;3141976;22;20606;-76
2024/01/19 01:10:23;;;;;;;0.30;0.30;;;;;;;-4.91;88.22;100252.06;3142238;22;20186;-76
2024/01/19 01:11:37;;;;;;;0.40;0.40;;;;;;;-4.86;88.13;100250.63;3141404;22;20599;-76
2024/01/19 01:12:51;;;;;;;0.30;0.30;;;;;;;-4.80;88.54;100250.06;3142191;22;20383;-77
2024/01/19 01:14:06;;;;;;;0.30;0.30;;;;;;;-4.74;88.31;100257.09;3142149;23;20259;-75
2024/01/19 01:15:19;;;;;;;0.40;0.40;;;;;;;-4.70;88.51;100256.41;3141019;22;20089;-76
2024/01/19 01:16:34;;;;;;;0.30;0.30;;;;;;;-4.67;88.37;100260.00;3141594;22;20832;-75
2024/01/19 01:17:47;;;;;;;0.37;0.37;;;;;;;-4.64;88.16;100265.22;3141877;22;20322;-77
2024/01/19 01:19:03;;;;;;;0.30;0.30;;;;;;;-4.60;88.51;100258.59;3141497;22;20253;-76
2024/01/19 01:20:17;;;;;;;0.30;0.30;;;;;;;-4.52;88.82;100262.34;3141833;22;20460;-76
2024/01/19 01:21:32;;;;;;;0.27;0.27;;;;;;;-4.48;88.65;100264.25;3142016;22;20263;-76
2024/01/19 01:22:45;;;;;;;0.20;0.20;;;;;;;-4.45;88.49;100266.94;3141726;22;20259;-77
2024/01/19 01:24:00;;;;;;;0.40;0.40;;;;;;;-4.42;88.34;100269.59;3139706;23;20263;-76
2024/01/19 01:25:13;;;;;;;0.30;0.30;;;;;;;-4.38;88.39;100273.19;3141968;22;20027;-77
2024/01/19 01:26:28;;;;;;;0.50;0.50;;;;;;;-4.35;88.53;100275.88;3141260;22;20269;-76
2024/01/19 01:27:41;;;;;;;0.20;0.20;;;;;;;-4.33;88.54;100275.94;3142144;22;20020;-76
2024/01/19 01:28:56;;;;;;;0.40;0.40;;;;;;;-4.30;88.68;100283.72;3142030;22;20988;-76
2024/01/19 01:30:09;;;;;;;0.43;0.43;;;;;;;-4.27;88.56;100276.22;3142229;22;20024;-76
2024/01/19 01:31:24;;;;;;;0.60;0.60;;;;;;;-4.23;88.55;100285.75;3141309;22;20328;-75
2024/01/19 01:32:37;;;;;;;0.30;0.30;;;;;;;-4.21;89.02;100291.75;3141508;22;20016;-76
2024/01/19 01:33:52;;;;;;;0.50;0.50;;;;;;;-4.19;88.86;100290.16;3142086;22;20341;-76
2024/01/19 01:35:07;;;;;;;0.40;0.40;;;;;;;-4.16;88.65;100290.28;3141438;22;20434;-76
2024/01/19 01:36:21;;;;;;;0.30;0.30;;;;;;;-4.13;88.86;100295.53;3141816;22;20290;-76
2024/01/19 01:37:35;;;;;;;0.30;0.30;;;;;;;-4.07;88.90;100300.03;3142076;22;20605;-76
2024/01/19 01:38:50;;;;;;;0.50;0.50;;;;;;;-4.03;88.63;100300.22;3141845;22;20245;-76
2024/01/19 01:40:05;;;;;;;0.30;0.30;;;;;;;-3.98;88.92;100303.84;3142058;22;20016;-78
2024/01/19 01:41:19;;;;;;;0.40;0.40;;;;;;;-3.91;88.68;100304.13;3142084;22;20263;-76
2024/01/19 01:42:33;;;;;;;0.30;0.30;;;;;;;-3.86;88.95;100313.72;3141419;22;20575;-76
2024/01/19 01:43:47;;;;;;;0.20;0.20;;;;;;;-3.80;88.95;100301.22;3142026;22;20274;-77
2024/01/19 01:45:01;;;;;;;0.20;0.20;;;;;;;-3.74;89.21;100309.16;3142100;22;20023;-75
2024/01/19 01:46:16;;;;;;;2.03;2.00;;;;;;;-3.66;89.00;100306.94;3141649;22;20297;-77
2024/01/19 01:47:29;;;;;;;2.50;2.40;;;;;;;-3.58;88.68;100315.78;3141588;22;20449;-76
2024/01/19 01:48:44;;;;;;;0.90;0.90;;;;;;;-3.48;88.82;100316.16;3141845;22;20266;-77
2024/01/19 01:49:57;;;;;;;0.50;0.50;;;;;;;-3.43;88.86;100320.66;3141418;22;20024;-76
2024/01/19 01:51:14;;;;;;;0.87;0.77;;;;;;;-3.36;88.84;100322.66;3141145;22;20754;-76
2024/01/19 01:52:28;;;;;;;1.00;1.00;;;;;;;-3.29;89.14;100327.22;3142159;22;20100;-76
2024/01/19 01:53:42;;;;;;;0.63;0.63;;;;;;;-3.23;89.40;100318.06;3142024;22;20301;-76
2024/01/19 01:54:56;;;;;;;0.30;0.30;;;;;;;-3.18;89.12;100329.34;3141392;22;20072;-77
2024/01/19 01:56:10;;;;;;;0.67;0.67;;;;;;;-3.14;89.36;100329.53;3141594;22;20630;-76
2024/01/19 01:57:24;;;;;;;0.27;0.27;;;;;;;-3.11;89.30;100327.09;3141961;22;20031;-77
2024/01/19 01:58:39;;;;;;;0.37;0.37;;;;;;;-3.07;89.61;100331.53;3141621;22;20338;-76
2024/01/19 01:59:53;;;;;;;0.93;0.93;;;;;;;-3.03;89.22;100329.97;3142084;22;20024;-77
2024/01/19 02:01:08;;;;;;;1.27;1.27;;;;;;;-3.00;89.38;100326.66;3141675;22;20709;-76
2024/01/19 02:02:21;;;;;;;0.30;0.30;;;;;;;-2.96;88.96;100329.41;3142041;22;20255;-77
2024/01/19 02:03:37;;;;;;;0.30;0.30;;;;;;;-2.92;89.04;100328.75;3141106;22;20286;-77
2024/01/19 02:04:51;;;;;;;0.30;0.30;;;;;;;-2.90;89.10;100326.22;3142217;22;20024;-76
2024/01/19 02:06:05;;;;;;;0.30;0.30;;;;;;;-2.88;89.21;100334.81;3141884;22;20347;-78
2024/01/19 02:07:20;;;;;;;1.40;1.07;;;;;;;-2.87;89.39;100328.91;3141148;22;20020;-76
2024/01/19 02:08:35;;;;;;;0.70;0.70;;;;;;;-2.86;89.23;100331.53;3141598;22;20675;-76
2024/01/19 02:09:48;;;;;;;0.70;0.70;;;;;;;-2.83;89.18;100335.88;3141993;22;20258;-76
2024/01/19 02:11:02;;;;;;;0.30;0.30;;;;;;;-2.81;89.16;100338.47;3141288;22;20504;-76
2024/01/19 02:12:16;;;;;;;0.97;0.97;;;;;;;-2.78;89.45;100341.19;3141852;22;20036;-77
2024/01/19 02:13:30;;;;;;;0.30;0.30;;;;;;;-2.76;89.26;100343.00;3142249;22;20269;-77
2024/01/19 02:14:44;;;;;;;1.00;1.00;;;;;;;-2.72;89.36;100346.53;3141516;22;20470;-77
2024/01/19 02:16:00;;;;;;;0.60;0.60;;;;;;;-2.73;89.51;100343.09;3141807;22;20345;-77
2024/01/19 02:17:13;;;;;;;0.20;0.20;;;;;;;-2.71;89.21;100336.38;3141808;22;20097;-77
2024/01/19 02:18:28;;;;;;;1.13;1.03;;;;;;;-2.68;89.38;100336.50;3141330;22;20757;-77
2024/01/19 02:19:41;;;;;;;0.40;0.40;;;;;;;-2.68;89.65;100336.50;3141970;22;20031;-76
2024/01/19 02:20:56;;;;;;;0.30;0.30;;;;;;;-2.67;89.30;100337.34;3141735;22;20778;-77
2024/01/19 02:22:09;;;;;;;1.40;1.40;;;;;;;-2.66;89.26;100333.97;3142349;22;20024;-77
2024/01/19 02:23:27;;;;;;;1.30;1.13;;;;;;;-2.64;89.61;100332.38;3141353;22;20348;-76
2024/01/19 02:24:42;;;;;;;0.20;0.20;;;;;;;-2.65;89.26;100333.19;3141998;22;20092;-77
2024/01/19 02:25:57;;;;;;;0.50;0.50;;;;;;;-2.64;89.58;100345.13;3141846;23;20269;-76
2024/01/19 02:27:10;;;;;;;0.80;0.80;;;;;;;-2.65;89.44;100344.28;3140991;22;20255;-76
2024/01/19 02:28:25;;;;;;;0.20;0.20;;;;;;;-2.65;89.18;100346.81;3141460;22;20693;-76
2024/01/19 02:29:38;;;;;;;1.15;1.15;;;;;;;-2.66;89.14;100342.53;3141940;22;20020;-76
2024/01/19 02:30:53;;;;;;;0.63;0.63;;;;;;;-2.65;89.47;100345.97;3141010;22;20255;-76
2024/01/19 02:32:06;;;;;;;0.20;0.20;;;;;;;-2.66;89.63;100339.09;3142696;22;20100;-76
2024/01/19 02:33:21;;;;;;;0.30;0.30;;;;;;;-2.67;89.51;100348.44;3142705;22;20761;-76
2024/01/19 02:34:35;;;;;;;0.30;0.30;;;;;;;-2.66;89.62;100345.09;3142296;22;20359;-76
2024/01/19 02:35:49;;;;;;;0.20;0.20;;;;;;;-2.66;89.11;100350.22;3142716;22;20270;-76
2024/01/19 02:37:03;;;;;;;1.37;1.37;;;;;;;-2.65;89.38;100351.06;3142559;22;20024;-76
2024/01/19 02:38:17;;;;;;;0.30;0.30;;;;;;;-2.65;89.49;100351.94;3142889;22;20338;-76
2024/01/19 02:39:31;;;;;;;0.30;0.30;;;;;;;-2.65;88.98;100349.38;3142433;22;20028;-76
2024/01/19 02:40:46;;;;;;;0.40;0.40;;;;;;;-2.65;89.33;100354.50;3142964;22;20269;-75
2024/01/19 02:42:00;;;;;;;0.40;0.40;;;;;;;-2.65;89.45;100356.19;3142861;22;20032;-77
2024/01/19 02:43:14;;;;;;;0.40;0.40;;;;;;;-2.66;88.96;100359.53;3142254;22;20330;-76
2024/01/19 02:44:28;;;;;;;0.30;0.30;;;;;;;-2.67;89.38;100356.09;3142731;22;20023;-75
2024/01/19 02:45:42;;;;;;;0.20;0.20;;;;;;;-2.67;88.99;100357.78;3142794;22;20298;-77
2024/01/19 02:46:56;;;;;;;0.20;0.20;;;;;;;-2.68;89.42;100362.03;3141251;22;20028;-76
2024/01/19 02:48:12;;;;;;;0.33;0.33;;;;;;;-2.67;89.08;100362.91;3142827;23;20349;-77
2024/01/19 02:49:26;;;;;;;0.30;0.30;;;;;;;-2.68;89.06;100364.59;3142615;22;20472;-76
2024/01/19 02:50:40;;;;;;;0.30;0.30;;;;;;;-2.68;89.10;100367.16;3142378;22;20278;-76
2024/01/19 02:51:53;;;;;;;0.30;0.30;;;;;;;-2.69;89.29;100373.03;3142565;22;20043;-76
2024/01/19 02:53:08;;;;;;;0.43;0.43;;;;;;;-2.67;89.15;100371.44;3142802;22;20287;-75
2024/01/19 02:54:21;;;;;;;0.20;0.20;;;;;;;-2.68;88.98;100372.25;3142402;22;20467;-76
2024/01/19 02:55:36;;;;;;;1.53;1.53;;;;;;;-2.66;89.00;100374.84;3142180;22;20251;-76
2024/01/19 02:56:51;;;;;;;0.20;0.20;;;;;;;-2.65;89.08;100377.47;3142491;22;20579;-76
2024/01/19 02:58:05;;;;;;;0.30;0.30;;;;;;;-2.62;89.49;100384.41;3142764;22;20274;-76
2024/01/19 02:59:18;;;;;;;0.70;0.70;;;;;;;-2.62;89.11;100379.28;3142207;22;20251;-76
2024/01/19 03:00:33;;;;;;;0.90;0.90;;;;;;;-2.62;89.13;100376.72;3142631;22;20269;-77
2024/01/19 03:01:46;;;;;;;4.23;3.30;;;;;;;-2.61;89.41;100375.03;3142573;22;20024;-76
2024/01/19 03:03:01;;;;;;;0.33;0.33;;;;;;;-2.60;89.14;100380.22;3141870;22;20272;-76
2024/01/19 03:04:14;;;;;;;0.40;0.40;;;;;;;-2.58;89.49;100380.28;3142468;22;20020;-78
2024/01/19 03:05:29;;;;;;;0.30;0.30;;;;;;;-2.59;89.22;100381.09;3143074;23;20270;-77
2024/01/19 03:06:42;;;;;;;0.20;0.20;;;;;;;-2.59;89.06;100384.50;3142069;22;20182;-76
2024/01/19 03:07:57;;;;;;;5.73;2.43;;;;;;;-2.58;89.00;100380.28;3142828;22;20267;-77
2024/01/19 03:09:10;;;;;;;15.47;2.97;;;;;;;-2.58;89.59;100387.94;3142727;22;20028;-76
2024/01/19 03:10:25;;;;;;;0.40;0.40;;;;;;;-2.57;89.18;100389.69;3142734;22;20289;-78
2024/01/19 03:11:38;;;;;;;0.20;0.20;;;;;;;-2.56;89.29;100387.19;3142001;22;20020;-77
2024/01/19 03:12:54;;;;;;;0.33;0.33;;;;;;;-2.54;89.70;100392.38;3142923;22;20343;-76
2024/01/19 03:14:08;;;;;;;0.30;0.30;;;;;;;-2.54;89.34;100400.91;3142811;22;20016;-76
2024/01/19 03:15:22;;;;;;;0.20;0.20;;;;;;;-2.52;89.55;100389.06;3141962;22;20279;-76
2024/01/19 03:16:40;;;;;;;0.70;0.70;;;;;;;-2.51;89.03;100395.03;3142132;22;20028;-76
2024/01/19 03:17:54;;;;;;;3.40;3.17;;;;;;;-2.50;89.55;100392.56;3142679;22;20421;-77
2024/01/19 03:19:08;;;;;;;0.20;0.20;;;;;;;-2.47;89.43;100391.81;3141912;22;20605;-76
2024/01/19 03:20:22;;;;;;;1.47;1.47;;;;;;;-2.47;89.67;100392.69;3142453;23;20270;-76
2024/01/19 03:21:36;;;;;;;0.60;0.60;;;;;;;-2.45;89.67;100390.19;3144043;22;20027;-77
2024/01/19 03:22:50;;;;;;;2.00;1.90;;;;;;;-2.46;89.56;100396.09;3144229;22;20318;-76
2024/01/19 03:24:04;;;;;;;0.30;0.30;;;;;;;-2.47;89.64;100389.25;3145097;22;20474;-76
2024/01/19 03:25:19;;;;;;;0.67;0.67;;;;;;;-2.46;89.59;100394.41;3144628;22;20285;-76
2024/01/19 03:26:32;;;;;;;0.20;0.20;;;;;;;-2.46;89.35;100398.66;3143223;22;20035;-76
2024/01/19 03:27:46;;;;;;;0.20;0.20;;;;;;;-2.47;89.72;100399.47;3142489;22;20354;-76
2024/01/19 03:29:01;;;;;;;0.20;0.20;;;;;;;-2.46;89.71;100398.66;3142529;22;20032;-76
2024/01/19 03:30:16;;;;;;;0.30;0.30;;;;;;;-2.46;89.03;100402.06;3142651;22;20301;-76
2024/01/19 03:31:30;;;;;;;0.20;0.20;;;;;;;-2.47;89.31;100387.56;3141915;22;20729;-75
2024/01/19 03:32:44;;;;;;;5.37;1.07;;;;;;;-2.47;89.53;100390.13;3142226;22;20266;-77
2024/01/19 03:33:57;;;;;;;0.20;0.20;;;;;;;-2.47;89.46;100391.81;3142815;22;20031;-76
2024/01/19 03:35:12;;;;;;;0.60;0.60;;;;;;;-2.48;89.22;100392.59;3142012;22;20286;-77
2024/01/19 03:36:25;;;;;;;1.00;1.00;;;;;;;-2.48;89.16;100397.72;3142356;22;20116;-76
2024/01/19 03:37:40;;;;;;;0.20;0.20;;;;;;;-2.49;89.72;100395.97;3141809;22;20293;-77
2024/01/19 03:38:53;;;;;;;0.30;0.30;;;;;;;-2.50;89.62;100396.81;3142039;22;20016;-76
2024/01/19 03:40:09;;;;;;;0.20;0.20;;;;;;;-2.51;89.11;100405.25;3142525;22;20269;-77
2024/01/19 03:41:23;;;;;;;0.35;0.35;;;;;;;-2.52;89.55;100403.53;3142688;22;20020;-76
2024/01/19 03:42:37;;;;;;;3.03;2.33;;;;;;;-2.55;89.11;100395.75;3142388;22;20801;-76
2024/01/19 03:43:51;;;;;;;0.20;0.20;;;;;;;-2.55;89.64;100393.19;3142386;22;20060;-77
2024/01/19 03:45:08;;;;;;;2.30;1.20;;;;;;;-2.58;89.37;100398.16;3142955;22;20631;-76
2024/01/19 03:46:21;;;;;;;0.30;0.30;;;;;;;-2.60;89.48;100398.09;3142350;22;20024;-76
2024/01/19 03:47:36;;;;;;;0.73;0.73;;;;;;;-2.61;89.07;100388.69;3142265;22;20257;-77
2024/01/19 03:48:49;;;;;;;5.67;2.20;;;;;;;-2.60;89.32;100404.91;3142612;22;20024;-77
2024/01/19 03:50:05;;;;;;;0.30;0.30;;;;;;;-2.60;89.21;100399.81;3142544;22;20263;-76
2024/01/19 03:51:19;;;;;;;0.40;0.40;;;;;;;-2.60;89.29;100399.81;3141926;22;20073;-75
2024/01/19 03:52:33;;;;;;;0.47;0.47;;;;;;;-2.61;89.36;100400.59;3142428;22;20867;-76
2024/01/19 03:53:47;;;;;;;0.30;0.30;;;;;;;-2.63;89.55;100403.97;3142325;22;20633;-76
2024/01/19 03:55:01;;;;;;;1.47;1.37;;;;;;;-2.63;89.42;100400.56;3141574;22;20247;-75
2024/01/19 03:56:15;;;;;;;0.20;0.20;;;;;;;-2.65;89.46;100407.28;3141625;22;20024;-76
2024/01/19 03:57:29;;;;;;;0.30;0.30;;;;;;;-2.67;89.27;100409.75;3141731;22;20691;-76
2024/01/19 03:58:42;;;;;;;0.38;0.38;;;;;;;-2.66;89.48;100413.16;3141567;22;20028;-76
2024/01/19 03:59:57;;;;;;;0.27;0.27;;;;;;;-2.67;89.52;100411.44;3141852;22;20263;-76
2024/01/19 04:01:12;;;;;;;0.20;0.20;;;;;;;-2.68;89.42;100415.69;3141846;22;20478;-76
2024/01/19 04:02:26;;;;;;;0.70;0.70;;;;;;;-2.71;89.37;100405.34;3141895;22;20267;-76
2024/01/19 04:03:40;;;;;;;0.37;0.37;;;;;;;-2.72;89.08;100411.25;3141597;22;20239;-76
2024/01/19 04:04:54;;;;;;;0.27;0.27;;;;;;;-2.73;88.80;100408.66;3141843;22;20263;-77
2024/01/19 04:06:07;;;;;;;1.13;1.13;;;;;;;-2.74;89.37;100410.31;3141906;22;20404;-76
2024/01/19 04:07:22;;;;;;;0.30;0.30;;;;;;;-2.76;88.91;100411.06;3141362;22;20251;-76
2024/01/19 04:08:35;;;;;;;0.50;0.50;;;;;;;-2.77;88.75;100417.84;3142580;22;20024;-76
2024/01/19 04:09:50;;;;;;;0.20;0.20;;;;;;;-2.78;89.41;100413.56;3142589;22;20269;-76
2024/01/19 04:11:04;;;;;;;0.57;0.57;;;;;;;-2.79;89.15;100411.78;3147578;22;20016;-77
2024/01/19 04:12:18;;;;;;;0.40;0.40;;;;;;;-2.80;88.76;100406.66;3147834;22;20316;-75
2024/01/19 04:13:32;;;;;;;0.87;0.87;;;;;;;-2.81;89.07;100416.00;3142698;22;20020;-76
2024/01/19 04:14:46;;;;;;;0.60;0.60;;;;;;;-2.82;89.09;100409.13;3141386;22;20625;-77
2024/01/19 04:16:00;;;;;;;0.20;0.20;;;;;;;-2.82;88.84;100413.38;3141946;23;20027;-76
2024/01/19 04:17:15;;;;;;;0.40;0.40;;;;;;;-2.82;88.98;100418.47;3141980;22;20262;-76
2024/01/19 04:18:29;;;;;;;0.33;0.33;;;;;;;-2.84;88.89;100423.50;3141625;22;20024;-76
2024/01/19 04:19:44;;;;;;;0.83;0.83;;;;;;;-2.86;89.03;100418.34;3141895;22;20706;-75
2024/01/19 04:20:57;;;;;;;0.40;0.40;;;;;;;-2.86;88.66;100423.47;3141776;22;20031;-76
2024/01/19 04:22:12;;;;;;;0.30;0.30;;;;;;;-2.87;89.10;100414.03;3142406;22;20339;-77
2024/01/19 04:23:25;;;;;;;0.40;0.40;;;;;;;-2.89;88.87;100413.13;3141694;22;20024;-76
2024/01/19 04:24:39;;;;;;;0.45;0.45;;;;;;;-2.89;88.89;100412.22;3142113;22;20262;-76
2024/01/19 04:25:53;;;;;;;0.40;0.40;;;;;;;-2.90;88.84;100418.16;3141992;22;20035;-77
2024/01/19 04:27:07;;;;;;;0.40;0.40;;;;;;;-2.91;88.73;100418.97;3141252;22;20247;-77
2024/01/19 04:28:20;;;;;;;0.30;0.30;;;;;;;-2.94;88.67;100421.41;3142206;22;20035;-77
2024/01/19 04:29:35;;;;;;;0.30;0.30;;;;;;;-2.95;89.14;100422.19;3142053;22;20262;-76
2024/01/19 04:30:48;;;;;;;0.40;0.40;;;;;;;-2.95;89.09;100419.63;3141709;22;20027;-77
2024/01/19 04:32:03;;;;;;;0.40;0.40;;;;;;;-2.97;89.05;100409.38;3141763;22;20267;-77
2024/01/19 04:33:18;;;;;;;0.30;0.30;;;;;;;-2.98;88.51;100414.41;3141716;22;20024;-77
2024/01/19 04:34:32;;;;;;;0.30;0.30;;;;;;;-3.00;88.90;100409.22;3145455;22;20274;-76
2024/01/19 04:35:45;;;;;;;0.30;0.30;;;;;;;-3.01;89.03;100421.94;3142297;22;20618;-76
2024/01/19 04:37:00;;;;;;;0.30;0.30;;;;;;;-3.03;88.71;100419.31;3141343;22;20263;-77
2024/01/19 04:38:14;;;;;;;0.47;0.47;;;;;;;-3.03;88.91;100426.09;3142089;22;20035;-75
2024/01/19 04:39:28;;;;;;;0.43;0.43;;;;;;;-3.05;88.67;100428.59;3141323;22;20788;-77
2024/01/19 04:40:41;;;;;;;0.93;0.93;;;;;;;-3.05;88.83;100435.38;3142025;22;20043;-74
2024/01/19 04:41:56;;;;;;;0.30;0.30;;;;;;;-3.08;88.49;100428.47;3141899;22;20764;-76
2024/01/19 04:43:09;;;;;;;0.20;0.20;;;;;;;-3.11;88.96;100431.75;3141232;22;20020;-76
2024/01/19 04:44:23;;;;;;;0.30;0.30;;;;;;;-3.15;88.89;100429.91;3141867;22;20289;-76
2024/01/19 04:45:37;;;;;;;0.57;0.57;;;;;;;-3.18;88.56;100437.41;3141918;22;20027;-76
2024/01/19 04:46:52;;;;;;;0.20;0.20;;;;;;;-3.22;88.50;100430.44;3140845;22;20243;-76
2024/01/19 04:48:05;;;;;;;0.30;0.30;;;;;;;-3.26;88.48;100432.78;3141869;22;20255;-76
2024/01/19 04:49:21;;;;;;;0.50;0.50;;;;;;;-3.29;88.58;100434.38;3141804;22;20263;-76
2024/01/19 04:50:35;;;;;;;0.20;0.20;;;;;;;-3.33;88.29;100447.84;3141476;22;20031;-76
2024/01/19 04:51:49;;;;;;;0.27;0.27;;;;;;;-3.36;88.76;100446.81;3141735;22;20342;-77
2024/01/19 04:53:03;;;;;;;0.20;0.20;;;;;;;-3.39;88.73;100449.22;3141910;23;20355;-76
2024/01/19 04:54:17;;;;;;;0.30;0.30;;;;;;;-3.43;88.31;100448.25;3141349;22;20299;-77
2024/01/19 04:55:30;;;;;;;0.40;0.40;;;;;;;-3.46;88.66;100453.19;3141348;22;20021;-77
2024/01/19 04:56:45;;;;;;;0.20;0.20;;;;;;;-3.49;88.12;100453.03;3141705;22;20738;-76
2024/01/19 04:57:58;;;;;;;0.30;0.30;;;;;;;-3.54;88.57;100452.88;3142035;22;20024;-76
2024/01/19 04:59:13;;;;;;;0.23;0.23;;;;;;;-3.57;87.96;100459.50;3141362;22;20257;-76
2024/01/19 05:00:26;;;;;;;0.30;0.30;;;;;;;-3.60;88.52;100456.81;3141904;22;20356;-76
2024/01/19 05:01:41;;;;;;;0.80;0.80;;;;;;;-3.66;88.32;100457.41;3142023;22;20281;-76
2024/01/19 05:02:54;;;;;;;0.20;0.20;;;;;;;-3.70;87.92;100463.16;3141211;22;20043;-76
2024/01/19 05:04:08;;;;;;;0.20;0.20;;;;;;;-3.74;87.95;100458.75;3142021;22;20279;-76
2024/01/19 05:05:23;;;;;;;0.67;0.67;;;;;;;-3.79;87.85;100468.72;3141857;22;20027;-76
2024/01/19 05:06:37;;;;;;;0.50;0.50;;;;;;;-3.83;87.96;100466.81;3140959;22;20267;-77
2024/01/19 05:07:51;;;;;;;6.90;2.83;;;;;;;-3.86;87.86;100471.78;3141875;22;20269;-77
2024/01/19 05:09:06;;;;;;;0.40;0.40;;;;;;;-3.89;88.16;100476.75;3142020;23;20267;-75
2024/01/19 05:10:19;;;;;;;0.30;0.30;;;;;;;-3.92;88.27;100476.63;3142062;22;20095;-76
2024/01/19 05:11:34;;;;;;;0.40;0.40;;;;;;;-3.96;87.82;100478.13;3141019;22;20251;-76
2024/01/19 05:12:47;;;;;;;0.30;0.30;;;;;;;-3.98;87.58;100479.72;3141384;22;20020;-76
2024/01/19 05:14:03;;;;;;;1.40;1.33;;;;;;;-3.99;88.19;100480.53;3141761;22;20725;-78
2024/01/19 05:15:16;;;;;;;0.40;0.40;;;;;;;-4.02;88.14;100474.44;3140913;22;20307;-76
2024/01/19 05:16:31;;;;;;;0.30;0.30;;;;;;;-4.06;87.67;100478.50;3141594;22;20323;-76
2024/01/19 05:17:44;;;;;;;0.20;0.20;;;;;;;-4.09;87.85;100493.66;3141735;22;20095;-76
2024/01/19 05:18:58;;;;;;;3.90;3.60;;;;;;;-4.13;87.77;100491.78;3141327;22;20247;-77
2024/01/19 05:20:12;;;;;;;0.40;0.40;;;;;;;-4.14;87.46;100492.56;3142215;22;20024;-77
2024/01/19 05:21:27;;;;;;;0.20;0.20;;;;;;;-4.15;87.55;100495.91;3141702;22;20267;-77
2024/01/19 05:22:41;;;;;;;0.57;0.57;;;;;;;-4.17;87.43;100500.06;3141428;22;20036;-77
2024/01/19 05:23:55;;;;;;;0.60;0.60;;;;;;;-4.17;87.45;100505.16;3142026;22;20285;-76
2024/01/19 05:25:09;;;;;;;0.37;0.37;;;;;;;-4.20;87.84;100505.03;3142143;22;20020;-76
2024/01/19 05:26:25;;;;;;;0.30;0.30;;;;;;;-4.22;87.66;100501.50;3141792;22;20266;-76
2024/01/19 05:27:39;;;;;;;0.30;0.30;;;;;;;-4.24;87.75;100505.66;3141433;22;20016;-76
2024/01/19 05:28:53;;;;;;;0.30;0.30;;;;;;;-4.26;87.75;100502.16;3141988;22;20754;-78
2024/01/19 05:30:08;;;;;;;0.30;0.30;;;;;;;-4.26;87.87;100504.69;3142066;23;20024;-76
2024/01/19 05:31:22;;;;;;;0.43;0.43;;;;;;;-4.29;87.53;100515.63;3140872;22;20312;-76
2024/01/19 05:32:36;;;;;;;0.30;0.30;;;;;;;-4.31;87.67;100507.06;3141430;22;20254;-76
2024/01/19 05:33:50;;;;;;;0.63;0.63;;;;;;;-4.29;87.95;100517.31;3142093;22;20269;-77
2024/01/19 05:35:04;;;;;;;0.57;0.57;;;;;;;-4.27;87.50;100510.59;3141708;22;20020;-76
2024/01/19 05:36:20;;;;;;;0.30;0.30;;;;;;;-4.26;87.87;100514.88;3141602;22;20821;-76
2024/01/19 05:37:35;;;;;;;0.20;0.20;;;;;;;-4.25;87.53;100516.66;3142315;22;20368;-77
2024/01/19 05:38:49;;;;;;;0.30;0.30;;;;;;;-4.24;87.68;100514.16;3141496;22;20243;-76
2024/01/19 05:40:03;;;;;;;0.47;0.47;;;;;;;-4.23;88.07;100515.94;3141954;22;20262;-76
2024/01/19 05:41:21;;;;;;;2.93;2.83;;;;;;;-4.22;88.02;100522.75;3142133;22;20266;-76
2024/01/19 05:42:34;;;;;;;1.37;1.33;;;;;;;-4.20;87.67;100531.38;3141380;22;20025;-76
2024/01/19 05:43:49;;;;;;;0.40;0.40;;;;;;;-4.20;87.88;100528.81;3142157;22;20271;-76
2024/01/19 05:45:03;;;;;;;0.33;0.33;;;;;;;-4.18;87.81;100529.78;3141807;22;20020;-76